Pall Mall, Tennessee
Current Conditions -  °F | °C
As of 7:56 AM on Wednesday 28 Jan 2015 (Local Time) from KEKQ Reporting Station
Clear Clear  
Wind Chill: 16°   Ceiling: Unl
Heat Index: 23°   Visibility: 10mi
Dew Point: 18°   Wind: 6mph
Humidity: 82%   Direction: 50°NE
Pressure: 30.38"   Gusts: NA
Location:  36.55°N, 84.97°W
Report Text: KEKQ 281356Z AUTO 05005KT 10SM CLR M05/M08 A3038 RMK AO2 T10501077 SLP301
Loading
Personal Weather Stations






























Interactive Weather Map New forecast layout! Learn more

10-Day Weather Forecast

Advertisements
Track Severe Weather on mobile